createdAt,value
2019-03-20T00:00:10.059Z,41.25
2019-03-20T00:01:10.558Z,41.58
2019-03-20T00:02:10.039Z,40.86
2019-03-20T00:03:10.727Z,41.05
2019-03-20T00:04:10.189Z,41.55
2019-03-20T00:05:12.165Z,40.86
2019-03-20T00:06:09.999Z,41.08
2019-03-20T00:07:10.025Z,41.08
2019-03-20T00:08:10.038Z,41.05
2019-03-20T00:09:09.969Z,41.77
2019-03-20T00:10:09.945Z,41.67
2019-03-20T00:11:10.104Z,41.05
2019-03-20T00:12:09.927Z,41.08
2019-03-20T00:13:10.247Z,40.86
2019-03-20T00:14:10.640Z,40.95
2019-03-20T00:15:09.889Z,40.95
2019-03-20T00:16:09.884Z,41.25
2019-03-20T00:17:10.709Z,40.88
2019-03-20T00:18:11.278Z,41.08
2019-03-20T00:19:09.913Z,41.58
2019-03-20T00:20:09.954Z,40.86
2019-03-20T00:21:09.844Z,41.46
2019-03-20T00:22:09.813Z,41.66
2019-03-20T00:23:10.631Z,41.38
2019-03-20T00:24:09.795Z,41.05
2019-03-20T00:25:09.783Z,41.38
2019-03-20T00:26:09.775Z,40.88
2019-03-20T00:27:10.065Z,41.27
2019-03-20T00:28:10.324Z,41.27
2019-03-20T00:29:14.154Z,41.17
2019-03-20T00:30:09.726Z,40.88
2019-03-20T00:31:10.580Z,40.86
2019-03-20T00:32:09.782Z,41.38
2019-03-20T00:33:09.952Z,40.95
2019-03-20T00:34:09.879Z,40.97
2019-03-20T00:35:10.350Z,40.88
2019-03-20T00:36:09.965Z,40.86
2019-03-20T00:37:09.837Z,41.08
2019-03-20T00:38:10.108Z,41.38
2019-03-20T00:39:09.788Z,40.88
2019-03-20T00:40:09.714Z,41.08
2019-03-20T00:41:09.842Z,41.58
2019-03-20T00:42:09.836Z,41.08
2019-03-20T00:43:09.748Z,41.16
2019-03-20T00:44:09.593Z,41.08
2019-03-20T00:45:09.563Z,41.05
2019-03-20T00:46:10.962Z,41.36
2019-03-20T00:47:09.581Z,41.25
2019-03-20T00:48:09.930Z,40.88
2019-03-20T00:49:09.708Z,40.95
2019-03-20T00:50:09.509Z,40.95
2019-03-20T00:51:10.124Z,41.17
2019-03-20T00:52:09.479Z,41.08
2019-03-20T00:53:09.572Z,40.88
2019-03-20T00:54:09.644Z,41.08
2019-03-20T00:55:09.634Z,41.17
2019-03-20T00:56:09.548Z,41.36
2019-03-20T00:57:11.060Z,40.95
2019-03-20T00:58:09.493Z,41.27
2019-03-20T00:59:09.762Z,41.08
2019-03-20T01:00:09.390Z,40.97
2019-03-20T01:01:09.396Z,40.88
2019-03-20T01:02:09.364Z,41.08
2019-03-20T01:03:09.358Z,41.46
2019-03-20T01:04:09.527Z,40.88
2019-03-20T01:05:12.800Z,40.88
2019-03-20T01:06:10.023Z,40.88
2019-03-20T01:07:10.268Z,40.97
2019-03-20T01:08:09.299Z,40.97
2019-03-20T01:09:09.286Z,40.95
2019-03-20T01:10:09.282Z,40.88
2019-03-20T01:11:10.455Z,40.88
2019-03-20T01:12:09.263Z,41.08
2019-03-20T01:13:11.237Z,40.88
2019-03-20T01:14:09.234Z,41.55
2019-03-20T01:15:09.386Z,40.97
2019-03-20T01:16:11.179Z,41.27
2019-03-20T01:17:09.343Z,40.97
2019-03-20T01:18:09.462Z,40.88
2019-03-20T01:19:09.176Z,40.97
2019-03-20T01:20:10.217Z,41.08
2019-03-20T01:21:09.174Z,40.67
2019-03-20T01:22:09.326Z,41.47
2019-03-20T01:23:11.219Z,41.17
2019-03-20T01:24:09.356Z,40.88
2019-03-20T01:25:09.326Z,41.17
2019-03-20T01:26:09.102Z,41.17
2019-03-20T01:27:09.083Z,40.88
2019-03-20T01:28:09.083Z,40.88
2019-03-20T01:29:09.297Z,41.58
2019-03-20T01:30:09.048Z,40.88
2019-03-20T01:31:09.880Z,40.88
2019-03-20T01:32:09.061Z,41.27
2019-03-20T01:33:09.563Z,41.58
2019-03-20T01:34:10.555Z,41.25
2019-03-20T01:35:09.217Z,41.47
2019-03-20T01:36:09.076Z,41.08
2019-03-20T01:37:09.653Z,41.38
2019-03-20T01:38:08.961Z,41.17
2019-03-20T01:39:08.947Z,40.97
2019-03-20T01:40:09.116Z,41.17
2019-03-20T01:41:10.560Z,41.05
2019-03-20T01:42:09.194Z,40.97
2019-03-20T01:43:08.982Z,40.97
2019-03-20T01:44:09.034Z,40.97
2019-03-20T01:45:08.929Z,40.88
2019-03-20T01:46:09.014Z,40.97
2019-03-20T01:47:09.382Z,41.47
2019-03-20T01:48:09.079Z,40.88
2019-03-20T01:49:08.852Z,41.17
2019-03-20T01:50:10.050Z,41.38
2019-03-20T01:51:08.837Z,41.27
2019-03-20T01:52:08.977Z,40.86
2019-03-20T01:53:08.858Z,40.97
2019-03-20T01:54:09.208Z,41.17
2019-03-20T01:55:08.777Z,40.88
2019-03-20T01:56:08.760Z,41.08
2019-03-20T01:57:08.778Z,40.97
2019-03-20T01:58:08.731Z,41.08
2019-03-20T01:59:09.344Z,41.27
2019-03-20T02:00:08.905Z,40.88
2019-03-20T02:01:08.704Z,40.88
2019-03-20T02:02:08.879Z,40.97
2019-03-20T02:03:09.442Z,40.97
2019-03-20T02:04:09.128Z,40.97
2019-03-20T02:05:08.870Z,40.97
2019-03-20T02:06:08.875Z,41.55
2019-03-20T02:07:10.415Z,40.97
2019-03-20T02:08:08.618Z,40.97
2019-03-20T02:09:09.570Z,40.88
2019-03-20T02:10:08.602Z,40.88
2019-03-20T02:11:11.313Z,41.58
2019-03-20T02:12:09.314Z,40.97
2019-03-20T02:13:08.562Z,40.97
2019-03-20T02:14:08.629Z,40.97
2019-03-20T02:15:08.540Z,40.88
2019-03-20T02:16:08.538Z,40.97
2019-03-20T02:17:08.639Z,40.88
2019-03-20T02:18:11.110Z,40.97
2019-03-20T02:19:08.500Z,40.88
2019-03-20T02:20:08.489Z,41.08
2019-03-20T02:21:08.485Z,40.97
2019-03-20T02:22:09.402Z,40.97
2019-03-20T02:23:08.738Z,40.88
2019-03-20T02:24:08.497Z,41.08
2019-03-20T02:25:08.596Z,40.97
2019-03-20T02:26:10.274Z,40.97
2019-03-20T02:27:09.840Z,40.97
2019-03-20T02:28:08.403Z,40.88
2019-03-20T02:29:09.869Z,40.97
2019-03-20T02:30:08.383Z,40.88
2019-03-20T02:31:08.979Z,41.17
2019-03-20T02:32:08.363Z,41.08
2019-03-20T02:33:08.593Z,41.17
2019-03-20T02:34:08.328Z,41.17
2019-03-20T02:35:08.670Z,41.08
2019-03-20T02:36:08.309Z,41.27
2019-03-20T02:37:08.601Z,41.38
2019-03-20T02:38:08.286Z,40.97
2019-03-20T02:39:09.587Z,41.08
2019-03-20T02:40:08.438Z,40.88
2019-03-20T02:41:09.916Z,40.97
2019-03-20T02:42:08.264Z,41.38
2019-03-20T02:43:08.236Z,40.97
2019-03-20T02:44:10.300Z,40.88
2019-03-20T02:45:08.207Z,41.58
2019-03-20T02:46:09.919Z,41.08
2019-03-20T02:47:08.268Z,40.88
2019-03-20T02:48:08.371Z,41.58
2019-03-20T02:49:09.555Z,41.27
2019-03-20T02:50:08.221Z,41.27
2019-03-20T02:51:08.141Z,41.17
2019-03-20T02:52:08.133Z,41.27
2019-03-20T02:53:10.099Z,41.38
2019-03-20T02:54:08.367Z,40.97
2019-03-20T02:55:08.611Z,40.97
2019-03-20T02:56:08.122Z,40.88
2019-03-20T02:57:08.321Z,40.97
2019-03-20T02:58:08.320Z,40.97
2019-03-20T02:59:08.300Z,40.97
2019-03-20T03:00:08.811Z,41.27
2019-03-20T03:01:08.030Z,41.27
2019-03-20T03:02:08.934Z,40.97
2019-03-20T03:03:08.008Z,41.08
2019-03-20T03:04:08.632Z,40.97
2019-03-20T03:05:08.437Z,40.97
2019-03-20T03:06:08.034Z,41.08
2019-03-20T03:07:08.173Z,41.08
2019-03-20T03:08:08.023Z,40.88
2019-03-20T03:09:08.306Z,40.97
2019-03-20T03:10:08.089Z,41.27
2019-03-20T03:11:08.256Z,40.88
2019-03-20T03:12:08.050Z,41.27
2019-03-20T03:13:07.896Z,41.27
2019-03-20T03:14:08.085Z,40.88
2019-03-20T03:15:07.913Z,40.97
2019-03-20T03:16:07.861Z,41.08
2019-03-20T03:17:08.971Z,41.08
2019-03-20T03:18:08.029Z,41.08
2019-03-20T03:19:08.377Z,40.97
2019-03-20T03:20:07.821Z,41.27
2019-03-20T03:21:10.172Z,41.27
2019-03-20T03:22:07.899Z,40.88
2019-03-20T03:23:07.928Z,40.88
2019-03-20T03:24:09.608Z,41.08
2019-03-20T03:25:08.207Z,41.08
2019-03-20T03:26:07.743Z,41.08
2019-03-20T03:27:07.842Z,41.27
2019-03-20T03:28:07.725Z,41.17
2019-03-20T03:29:10.143Z,40.97
2019-03-20T03:30:07.974Z,40.88
2019-03-20T03:31:07.695Z,41.38
2019-03-20T03:32:08.011Z,41.05
2019-03-20T03:33:07.981Z,40.97
2019-03-20T03:34:07.660Z,41.38
2019-03-20T03:35:07.851Z,41.47
2019-03-20T03:36:20.545Z,40.97
2019-03-20T03:37:08.633Z,41.08
2019-03-20T03:38:07.622Z,41.67
2019-03-20T03:39:09.310Z,41.08
2019-03-20T03:40:07.591Z,40.97
2019-03-20T03:41:08.808Z,40.88
2019-03-20T03:42:07.788Z,41.08
2019-03-20T03:43:11.212Z,40.97
2019-03-20T03:44:07.561Z,40.88
2019-03-20T03:45:08.219Z,41.08
2019-03-20T03:46:07.521Z,40.88
2019-03-20T03:47:07.598Z,41.17
2019-03-20T03:48:07.587Z,41.27
2019-03-20T03:49:07.716Z,41.08
2019-03-20T03:50:07.580Z,41.08
2019-03-20T03:51:08.086Z,41.08
2019-03-20T03:52:07.633Z,41.08
2019-03-20T03:53:08.364Z,41.17
2019-03-20T03:54:07.457Z,41.38
2019-03-20T03:55:07.982Z,40.88
2019-03-20T03:56:07.478Z,40.97
2019-03-20T03:57:07.563Z,41.38
2019-03-20T03:58:07.663Z,40.97
2019-03-20T03:59:10.553Z,41.38
2019-03-20T04:00:07.412Z,40.97
2019-03-20T04:01:07.365Z,41.08
2019-03-20T04:02:07.350Z,41.17
2019-03-20T04:03:07.331Z,41.08
2019-03-20T04:04:07.927Z,41.08
2019-03-20T04:05:08.548Z,41.08
2019-03-20T04:06:07.416Z,40.97
2019-03-20T04:07:07.986Z,40.88
2019-03-20T04:08:07.284Z,41.08
2019-03-20T04:09:07.259Z,41.38
2019-03-20T04:10:08.822Z,40.88
2019-03-20T04:11:08.348Z,41.17
2019-03-20T04:12:07.229Z,40.88
2019-03-20T04:13:07.221Z,41.38
2019-03-20T04:14:08.367Z,40.88
2019-03-20T04:15:07.194Z,41.08
2019-03-20T04:16:07.435Z,41.38
2019-03-20T04:17:12.959Z,41.17
2019-03-20T04:18:07.161Z,41.08
2019-03-20T04:19:07.523Z,41.38
2019-03-20T04:20:07.152Z,40.88
2019-03-20T04:21:07.308Z,41.08
2019-03-20T04:22:07.194Z,41.08
2019-03-20T04:23:07.223Z,41.38
2019-03-20T04:24:07.220Z,41.38
2019-03-20T04:25:07.528Z,41.17
2019-03-20T04:26:07.077Z,40.67
2019-03-20T04:27:07.888Z,40.78
2019-03-20T04:28:07.179Z,40.88
2019-03-20T04:29:09.233Z,40.88
2019-03-20T04:30:07.025Z,40.78
2019-03-20T04:31:08.264Z,41.38
2019-03-20T04:32:07.010Z,41.38
2019-03-20T04:33:07.227Z,40.88
2019-03-20T04:34:07.402Z,41.08
2019-03-20T04:35:07.034Z,40.97
2019-03-20T04:36:08.361Z,40.97
2019-03-20T04:37:06.955Z,41.38
2019-03-20T04:38:07.200Z,41.27
2019-03-20T04:39:06.929Z,40.97
2019-03-20T04:40:06.915Z,41.08
2019-03-20T04:41:06.938Z,41.17
2019-03-20T04:42:06.893Z,40.97
2019-03-20T04:43:07.270Z,41.38
2019-03-20T04:44:07.203Z,40.97
2019-03-20T04:45:07.322Z,40.97
2019-03-20T04:46:06.844Z,41.27
2019-03-20T04:47:08.051Z,40.97
2019-03-20T04:48:06.824Z,40.97
2019-03-20T04:49:08.169Z,41.38
2019-03-20T04:50:07.028Z,40.97
2019-03-20T04:51:06.985Z,40.97
2019-03-20T04:52:06.867Z,41.27
2019-03-20T04:53:07.225Z,41.38
2019-03-20T04:54:07.773Z,41.38
2019-03-20T04:55:06.750Z,41.38
2019-03-20T04:56:06.755Z,41.38
2019-03-20T04:57:06.725Z,40.97
2019-03-20T04:58:06.966Z,41.08
2019-03-20T04:59:07.881Z,40.97
2019-03-20T05:00:06.874Z,41.38
2019-03-20T05:01:06.693Z,41.17
2019-03-20T05:02:06.667Z,40.78
2019-03-20T05:03:06.894Z,41.08
2019-03-20T05:04:07.839Z,41.27
2019-03-20T05:05:06.952Z,41.17
2019-03-20T05:06:06.617Z,41.27
2019-03-20T05:07:07.242Z,40.78
2019-03-20T05:08:06.702Z,41.38
2019-03-20T05:09:06.764Z,41.38
2019-03-20T05:10:07.039Z,41.38
2019-03-20T05:11:06.565Z,41.38
2019-03-20T05:12:10.111Z,40.78
2019-03-20T05:13:07.856Z,40.97
2019-03-20T05:14:06.692Z,40.67
2019-03-20T05:15:06.690Z,41.38
2019-03-20T05:16:06.865Z,40.88
2019-03-20T05:17:06.498Z,41.27
2019-03-20T05:18:06.666Z,40.97
2019-03-20T05:19:06.722Z,41.08
2019-03-20T05:20:06.645Z,41.08
2019-03-20T05:21:06.452Z,40.97
2019-03-20T05:22:08.671Z,40.97
2019-03-20T05:23:08.460Z,41.17
2019-03-20T05:24:06.418Z,40.97
2019-03-20T05:25:06.406Z,41.38
2019-03-20T05:26:06.602Z,41.27
2019-03-20T05:27:06.557Z,41.08
2019-03-20T05:28:06.918Z,41.08
2019-03-20T05:29:06.362Z,41.27
2019-03-20T05:30:06.673Z,41.08
2019-03-20T05:31:07.723Z,40.97
2019-03-20T05:32:06.538Z,40.97
2019-03-20T05:33:06.937Z,40.88
2019-03-20T05:34:06.455Z,41.38
2019-03-20T05:35:07.768Z,40.97
2019-03-20T05:36:06.280Z,40.97
2019-03-20T05:37:10.635Z,40.97
2019-03-20T05:38:07.303Z,41.38
2019-03-20T05:39:06.261Z,40.88
2019-03-20T05:40:06.314Z,41.17
2019-03-20T05:41:06.451Z,40.97
2019-03-20T05:42:06.443Z,41.27
2019-03-20T05:43:06.535Z,41.17
2019-03-20T05:44:06.207Z,40.97
2019-03-20T05:45:06.184Z,41.08
2019-03-20T05:46:06.558Z,40.88
2019-03-20T05:47:08.154Z,41.38
2019-03-20T05:48:06.242Z,40.88
2019-03-20T05:49:06.137Z,40.97
2019-03-20T05:50:06.178Z,40.97
2019-03-20T05:51:06.141Z,40.67
2019-03-20T05:52:06.512Z,40.88
2019-03-20T05:53:06.092Z,40.88
2019-03-20T05:54:06.082Z,41.38
2019-03-20T05:55:06.139Z,41.27
2019-03-20T05:56:06.585Z,41.08
2019-03-20T05:57:06.051Z,41.17
2019-03-20T05:58:06.842Z,41.08
2019-03-20T05:59:06.127Z,41.27
2019-03-20T06:00:06.382Z,41.38
2019-03-20T06:01:06.019Z,40.97
2019-03-20T06:02:06.883Z,40.97
2019-03-20T06:03:05.982Z,41.38
2019-03-20T06:04:06.157Z,41.38
2019-03-20T06:05:05.958Z,41.17
2019-03-20T06:06:06.188Z,40.97
2019-03-20T06:07:05.986Z,41.38
2019-03-20T06:08:06.010Z,41.27
2019-03-20T06:09:05.934Z,40.78
2019-03-20T06:10:05.941Z,41.17
2019-03-20T06:11:06.099Z,41.08
2019-03-20T06:12:07.578Z,41.08
2019-03-20T06:13:05.865Z,41.08
2019-03-20T06:14:06.209Z,40.97
2019-03-20T06:15:06.040Z,40.97
2019-03-20T06:16:08.443Z,41.17
2019-03-20T06:17:06.291Z,41.08
2019-03-20T06:18:06.444Z,41.38
2019-03-20T06:19:05.802Z,41.17
2019-03-20T06:20:08.289Z,40.97
2019-03-20T06:21:08.253Z,41.27
2019-03-20T06:22:06.710Z,41.38
2019-03-20T06:23:05.760Z,40.97
2019-03-20T06:24:06.251Z,40.88
2019-03-20T06:25:08.038Z,40.97
2019-03-20T06:26:05.843Z,40.88
2019-03-20T06:27:06.885Z,40.97
2019-03-20T06:28:07.435Z,40.88
2019-03-20T06:29:07.114Z,41.08
2019-03-20T06:30:06.831Z,41.08
2019-03-20T06:31:08.636Z,41.08
2019-03-20T06:32:05.654Z,41.38
2019-03-20T06:33:06.085Z,40.97
2019-03-20T06:34:10.957Z,41.08
2019-03-20T06:35:05.668Z,40.97
2019-03-20T06:36:08.642Z,41.38
2019-03-20T06:37:09.123Z,40.88
2019-03-20T06:38:06.632Z,40.88
2019-03-20T06:39:08.249Z,40.37
2019-03-20T06:40:15.860Z,40.58
2019-03-20T06:41:07.653Z,40.47
2019-03-20T06:42:11.257Z,40.47
2019-03-20T06:43:08.429Z,40.37
2019-03-20T06:44:05.518Z,40.47
2019-03-20T06:45:07.617Z,40.37
2019-03-20T06:46:07.909Z,40.28
2019-03-20T06:47:07.085Z,40.58
2019-03-20T06:48:05.469Z,40.67
2019-03-20T06:49:08.079Z,40.47
2019-03-20T06:50:07.005Z,40.47
2019-03-20T06:51:05.592Z,40.47
2019-03-20T06:52:05.455Z,40.58
2019-03-20T06:53:07.792Z,40.47
2019-03-20T06:54:08.669Z,40.58
2019-03-20T06:55:06.398Z,40.47
2019-03-20T06:56:05.380Z,40.37
2019-03-20T06:57:07.494Z,40.28
2019-03-20T06:58:12.105Z,40.28
2019-03-20T06:59:06.358Z,40.28
2019-03-20T07:00:07.421Z,40.37
2019-03-20T07:01:07.575Z,40.47
2019-03-20T07:02:06.671Z,40.37
2019-03-20T07:03:07.021Z,40.37
2019-03-20T07:04:05.693Z,40.67
2019-03-20T07:05:07.915Z,40.58
2019-03-20T07:06:05.277Z,40.28
2019-03-20T07:07:07.275Z,40.28
2019-03-20T07:08:05.267Z,40.37
2019-03-20T07:09:06.194Z,40.47
2019-03-20T07:10:05.431Z,40.37
2019-03-20T07:11:05.214Z,40.37
2019-03-20T07:12:07.517Z,40.37
2019-03-20T07:13:07.603Z,40.58
2019-03-20T07:14:07.761Z,40.37
2019-03-20T07:15:05.905Z,40.28
2019-03-20T07:16:07.419Z,40.37
2019-03-20T07:17:05.360Z,40.37
2019-03-20T07:18:05.892Z,40.37
2019-03-20T07:19:07.032Z,40.28
2019-03-20T07:20:07.336Z,40.37
2019-03-20T07:21:08.160Z,40.37
2019-03-20T07:22:07.268Z,40.37
2019-03-20T07:23:06.490Z,40.28
2019-03-20T07:24:05.891Z,40.37
2019-03-20T07:25:06.074Z,40.37
2019-03-20T07:26:05.318Z,40.47
2019-03-20T07:27:06.965Z,40.37
2019-03-20T07:28:07.273Z,40.28
2019-03-20T07:29:07.378Z,40.37
2019-03-20T07:30:06.769Z,40.47
2019-03-20T07:31:15.434Z,40.37
2019-03-20T07:32:09.330Z,40.37
2019-03-20T07:33:09.818Z,40.37
2019-03-20T07:34:08.731Z,40.37
2019-03-20T07:35:09.791Z,40.37
2019-03-20T07:37:43.809Z,40.28
2019-03-20T07:38:44.402Z,40.37
2019-03-20T07:39:04.942Z,40.36
2019-03-20T07:40:07.881Z,40.47
2019-03-20T07:41:04.973Z,40.28
2019-03-20T07:42:06.339Z,40.37
2019-03-20T07:43:09.188Z,40.28
2019-03-20T07:44:04.851Z,40.28
2019-03-20T07:45:04.890Z,40.37
2019-03-20T07:46:10.851Z,40.37
2019-03-20T07:47:08.852Z,40.97
2019-03-20T07:50:47.641Z,40.88
2019-03-20T07:51:51.692Z,40.75
2019-03-20T07:52:48.689Z,40.58
2019-03-20T07:53:47.321Z,40.88
2019-03-20T07:54:49.863Z,40.78
2019-03-20T07:55:56.761Z,41.38
2019-03-20T07:56:46.859Z,40.66
2019-03-20T07:57:46.929Z,40.86
2019-03-20T07:58:47.243Z,40.75
2019-03-20T07:59:49.544Z,41.55
2019-03-20T08:00:48.366Z,41.66
2019-03-20T08:01:46.771Z,41.58
2019-03-20T08:02:48.442Z,41.55
2019-03-20T08:03:46.903Z,41.66
2019-03-20T08:04:47.339Z,42.15
2019-03-20T08:05:47.551Z,42.35
2019-03-20T08:06:46.744Z,41.75
2019-03-20T08:07:47.222Z,41.96
2019-03-20T08:09:05.872Z,41.85
2019-03-20T08:09:51.146Z,42.15
2019-03-20T08:10:49.386Z,42.15
2019-03-20T08:11:47.668Z,42.57
2019-03-20T08:12:46.991Z,42.55
2019-03-20T08:13:47.544Z,42.15
2019-03-20T08:14:53.386Z,42.46
2019-03-20T08:16:04.103Z,42.15
2019-03-20T08:16:47.436Z,42.55
2019-03-20T08:17:46.823Z,42.35
2019-03-20T08:18:46.451Z,42.46
2019-03-20T08:19:47.972Z,42.65
2019-03-20T08:20:48.728Z,42.15
2019-03-20T08:21:48.512Z,42.95
2019-03-20T08:22:50.425Z,42.76
2019-03-20T08:23:46.348Z,41.96
2019-03-20T08:24:46.325Z,42.76
2019-03-20T08:25:54.902Z,42.95
2019-03-20T08:26:50.399Z,42.85
2019-03-20T08:27:47.152Z,42.65
2019-03-20T08:28:52.868Z,42.46
2019-03-20T08:29:46.497Z,42.76
2019-03-20T08:30:46.935Z,42.65
2019-03-20T08:31:46.823Z,42.46
2019-03-20T08:32:49.983Z,42.65
2019-03-20T08:33:47.032Z,42.76
2019-03-20T08:34:48.159Z,42.15
2019-03-20T08:35:47.029Z,42.76
2019-03-20T08:36:48.623Z,42.95
2019-03-20T08:37:47.469Z,42.85
2019-03-20T08:38:49.106Z,42.05
2019-03-20T08:39:54.931Z,42.35
2019-03-20T08:40:48.159Z,42.65
2019-03-20T08:41:49.664Z,43.15
2019-03-20T08:42:48.465Z,42.65
2019-03-20T08:43:54.564Z,42.55
2019-03-20T08:44:55.809Z,41.75
2019-03-20T08:45:48.506Z,42.46
2019-03-20T08:46:48.682Z,42.25
2019-03-20T08:47:47.979Z,41.66
2019-03-20T08:48:48.816Z,42.15
2019-03-20T08:49:46.125Z,42.25
2019-03-20T08:50:48.452Z,42.65
2019-03-20T08:51:47.441Z,42.76
2019-03-20T08:52:46.331Z,42.25
2019-03-20T08:53:47.107Z,42.46
2019-03-20T08:54:47.812Z,42.35
2019-03-20T08:55:47.226Z,41.96
2019-03-20T08:56:56.254Z,42.05
2019-03-20T08:57:50.224Z,42.46
2019-03-20T08:58:47.560Z,42.25
2019-03-20T08:59:47.510Z,41.66
2019-03-20T09:00:46.345Z,41.75
2019-03-20T09:01:47.165Z,41.75
2019-03-20T09:02:53.339Z,42.15
2019-03-20T09:03:47.885Z,42.46
2019-03-20T09:04:49.796Z,42.25
2019-03-20T09:05:48.759Z,42.25
2019-03-20T09:06:50.734Z,42.15
2019-03-20T09:07:47.469Z,42.55
2019-03-20T09:08:48.384Z,42.15
2019-03-20T09:09:46.607Z,42.35
2019-03-20T09:10:46.138Z,42.35
2019-03-20T09:11:46.520Z,42.25
2019-03-20T09:12:46.323Z,41.55
2019-03-20T09:13:46.292Z,41.55
2019-03-20T09:14:49.512Z,42.55
2019-03-20T09:15:45.753Z,42.15
2019-03-20T09:16:47.639Z,42.05
2019-03-20T09:17:46.034Z,42.35
2019-03-20T09:18:46.553Z,42.05
2019-03-20T09:19:46.418Z,42.46
2019-03-20T09:20:47.959Z,42.15
2019-03-20T09:21:50.607Z,42.35
2019-03-20T09:22:50.479Z,41.55
2019-03-20T09:23:47.448Z,41.55
2019-03-20T09:24:48.844Z,42.25
2019-03-20T09:25:47.847Z,41.55
2019-03-20T09:26:47.911Z,42.25
2019-03-20T09:27:46.906Z,41.75
2019-03-20T09:28:47.838Z,41.85
2019-03-20T09:29:46.375Z,42.35
2019-03-20T09:30:47.816Z,42.25
2019-03-20T09:31:47.049Z,41.75
2019-03-20T09:32:46.848Z,41.55
2019-03-20T09:33:46.611Z,41.75
2019-03-20T09:34:52.346Z,41.75
2019-03-20T09:35:46.149Z,41.96
2019-03-20T09:36:46.513Z,42.05
2019-03-20T09:37:51.682Z,42.15
2019-03-20T09:38:49.027Z,42.05
2019-03-20T09:39:45.831Z,41.66
2019-03-20T09:40:45.494Z,41.55
2019-03-20T09:41:48.468Z,41.75
2019-03-20T09:42:51.426Z,41.75
2019-03-20T09:43:46.882Z,41.96
2019-03-20T09:44:50.362Z,41.55
2019-03-20T09:45:47.133Z,41.75
2019-03-20T09:46:47.220Z,41.55
2019-03-20T09:47:47.430Z,41.85
2019-03-20T09:48:46.191Z,41.46
2019-03-20T09:49:45.926Z,41.46
2019-03-20T09:50:47.657Z,41.85
2019-03-20T09:51:46.012Z,41.46
2019-03-20T09:52:47.161Z,41.66
2019-03-20T09:53:49.154Z,41.55
2019-03-20T09:54:46.088Z,41.75
2019-03-20T09:55:45.950Z,41.55
2019-03-20T09:56:46.153Z,41.25
2019-03-20T09:57:45.384Z,42.15
2019-03-20T09:58:45.268Z,41.55
2019-03-20T09:59:49.576Z,41.66
2019-03-20T10:00:46.654Z,41.55
2019-03-20T10:01:47.930Z,41.55
2019-03-20T10:02:53.112Z,41.85
2019-03-20T10:03:46.262Z,41.75
2019-03-20T10:04:47.332Z,41.24
2019-03-20T10:05:46.200Z,41.85
2019-03-20T10:06:45.320Z,41.36
2019-03-20T10:07:45.183Z,41.46
2019-03-20T10:08:54.095Z,42.05
2019-03-20T10:09:48.894Z,42.05
2019-03-20T10:10:52.352Z,42.05
2019-03-20T10:11:48.258Z,41.46
2019-03-20T10:12:46.402Z,41.36
2019-03-20T10:13:45.693Z,40.66
2019-03-20T10:14:46.768Z,41.33
2019-03-20T10:15:45.198Z,41.46
2019-03-20T10:16:49.703Z,40.66
2019-03-20T10:17:45.101Z,41.36
2019-03-20T10:18:49.677Z,40.66
2019-03-20T10:19:45.090Z,41.33
2019-03-20T10:20:47.937Z,41.74
2019-03-20T10:21:46.759Z,41.25
2019-03-20T10:22:45.610Z,41.36
2019-03-20T10:23:48.013Z,40.83
2019-03-20T10:24:47.909Z,41.36
2019-03-20T10:25:45.648Z,41.33
2019-03-20T10:26:47.180Z,41.24
2019-03-20T10:27:45.657Z,40.64
2019-03-20T10:28:45.581Z,40.95
2019-03-20T10:29:45.385Z,40.66
2019-03-20T10:30:44.911Z,40.75
2019-03-20T10:31:45.732Z,40.95
2019-03-20T10:32:45.097Z,40.86
2019-03-20T10:33:46.634Z,40.66
2019-03-20T10:34:47.202Z,40.83
2019-03-20T10:35:50.535Z,40.73
2019-03-20T10:36:45.682Z,41.33
2019-03-20T10:37:45.460Z,41.36
2019-03-20T10:38:48.901Z,41.05
2019-03-20T10:39:46.031Z,41.46
2019-03-20T10:40:46.672Z,41.24
2019-03-20T10:41:49.881Z,41.33
2019-03-20T10:42:48.351Z,41.05
2019-03-20T10:43:45.903Z,41.36
2019-03-20T10:44:49.112Z,41.36
2019-03-20T10:45:45.239Z,41.25
2019-03-20T10:46:44.730Z,40.66
2019-03-20T10:47:45.095Z,40.64
2019-03-20T10:48:47.778Z,40.75
2019-03-20T10:49:45.721Z,41.25
2019-03-20T10:50:45.848Z,40.66
2019-03-20T10:51:46.152Z,41.36
2019-03-20T10:52:46.454Z,40.75
2019-03-20T10:53:46.630Z,41.36
2019-03-20T10:54:45.873Z,40.83
2019-03-20T10:55:45.898Z,40.86
2019-03-20T10:56:47.851Z,41.36
2019-03-20T10:57:45.377Z,41.36
2019-03-20T10:58:48.866Z,41.36
2019-03-20T10:59:44.615Z,41.16
2019-03-20T11:00:48.290Z,41.33
2019-03-20T11:01:47.234Z,41.36
2019-03-20T11:02:45.037Z,41.03
2019-03-20T11:03:45.554Z,41.14
2019-03-20T11:04:44.941Z,41.14
2019-03-20T11:05:45.584Z,41.36
2019-03-20T11:06:44.936Z,40.95
2019-03-20T11:07:44.749Z,40.95
2019-03-20T11:08:44.536Z,41.36
2019-03-20T11:09:45.498Z,41.03
2019-03-20T11:10:45.451Z,40.56
2019-03-20T11:11:46.401Z,39.15
2019-03-20T11:12:47.427Z,39.26
2019-03-20T11:13:51.841Z,39.56
2019-03-20T11:15:02.804Z,39.46
2019-03-20T11:16:55.821Z,39.86
2019-03-20T11:17:46.106Z,39.36
2019-03-20T11:18:48.487Z,40.16
2019-03-20T11:19:45.851Z,40.86
2019-03-20T11:20:53.611Z,40.25
2019-03-20T11:21:44.527Z,40.04
2019-03-20T11:22:54.705Z,40.86
2019-03-20T11:23:48.897Z,39.95
2019-03-20T11:24:44.911Z,40.14
2019-03-20T11:25:44.707Z,40.86
2019-03-20T11:26:46.253Z,40.73
2019-03-20T11:27:45.290Z,40.44
2019-03-20T11:28:44.740Z,40.53
2019-03-20T11:29:44.655Z,40.53
2019-03-20T11:30:44.240Z,40.23
2019-03-20T11:31:44.507Z,40.73
2019-03-20T11:32:47.515Z,40.53
2019-03-20T11:33:44.504Z,41.14
2019-03-20T11:34:45.814Z,40.53
2019-03-20T11:35:48.591Z,40.34
2019-03-20T11:36:47.730Z,40.34
2019-03-20T11:37:47.512Z,40.34
2019-03-20T11:38:59.477Z,40.53
2019-03-20T11:39:47.015Z,40.53
2019-03-20T11:40:44.577Z,40.53
2019-03-20T11:41:45.787Z,40.44
2019-03-20T11:42:44.558Z,40.34
2019-03-20T11:43:49.157Z,40.44
2019-03-20T11:45:46.603Z,40.23
2019-03-20T11:46:47.947Z,40.34
2019-03-20T11:47:53.820Z,40.53
2019-03-20T11:50:20.754Z,40.23
2019-03-20T11:51:31.004Z,40.73
2019-03-20T11:52:10.202Z,40.73
2019-03-20T11:53:11.076Z,40.44
2019-03-20T11:58:49.658Z,40.53
2019-03-20T11:59:49.319Z,40.34
2019-03-20T12:02:28.745Z,40.23
2019-03-20T12:03:32.584Z,40.23
2019-03-20T12:04:29.024Z,40.53
2019-03-20T12:05:29.328Z,40.64
2019-03-20T12:06:29.935Z,40.22
2019-03-20T12:07:35.241Z,40.52
2019-03-20T12:08:29.693Z,40.32
2019-03-20T12:09:27.893Z,40.34
2019-03-20T12:10:32.184Z,40.23
2019-03-20T12:11:28.183Z,40.64
2019-03-20T12:12:29.041Z,40.32
2019-03-20T12:13:30.415Z,40.22
2019-03-20T12:14:29.058Z,40.22
2019-03-20T12:15:30.248Z,40.23
2019-03-20T12:16:55.885Z,40.32
2019-03-20T12:17:29.052Z,40.32
2019-03-20T12:18:32.338Z,40.23
2019-03-20T12:19:29.164Z,40.12
2019-03-20T12:20:28.635Z,40.62
2019-03-20T12:21:29.419Z,40.44
2019-03-20T12:22:30.683Z,40.62
2019-03-20T12:23:28.299Z,40.64
2019-03-20T12:24:30.950Z,40.83
2019-03-20T12:25:28.712Z,40.64
2019-03-20T12:26:28.472Z,41.03
2019-03-20T12:27:33.088Z,40.62
2019-03-20T12:28:31.708Z,40.44
2019-03-20T12:29:30.202Z,40.42
2019-03-20T12:30:28.227Z,40.42
2019-03-20T12:31:30.755Z,40.22
2019-03-20T12:32:32.095Z,40.44
2019-03-20T12:33:29.516Z,40.53
2019-03-20T12:34:32.508Z,40.52
2019-03-20T12:35:29.062Z,40.42
2019-03-20T12:36:28.456Z,41.11
2019-03-20T12:37:27.566Z,40.44
2019-03-20T12:38:28.837Z,39.04
2019-03-20T12:39:30.074Z,37.04
2019-03-20T12:40:31.466Z,37.64
2019-03-20T12:41:34.418Z,37.64
2019-03-20T12:42:29.604Z,38.32
2019-03-20T12:43:30.240Z,38.54
2019-03-20T12:44:29.234Z,38.34
2019-03-20T12:45:29.110Z,38.14
2019-03-20T12:46:41.800Z,38.54
2019-03-20T12:50:51.128Z,36.34
2019-03-20T12:51:52.831Z,37.04
2019-03-20T12:52:48.885Z,37.94
2019-03-20T12:53:51.980Z,37.84
2019-03-20T12:54:49.977Z,37.64
2019-03-20T12:55:50.485Z,36.94
2019-03-20T12:56:50.724Z,36.24
2019-03-20T12:57:50.665Z,35.85
2019-03-20T12:58:53.103Z,35.44
2019-03-20T12:59:52.367Z,35.74
2019-03-20T13:00:54.318Z,35.14
2019-03-20T13:01:48.824Z,36.64
2019-03-20T13:02:55.574Z,35.94
2019-03-20T13:03:49.837Z,35.54
2019-03-20T13:04:49.093Z,34.44
2019-03-20T13:05:50.745Z,33.65
2019-03-20T13:06:50.898Z,34.66
2019-03-20T13:07:49.966Z,35.74
2019-03-20T13:08:50.877Z,35.06